ESOE/ORB METAR and TAF weather

Enter ICAO airport designator
Station Type Date Time Source
ESOE METAR 2021/04/14 19:50 UTC NOAA

ESOE 141950Z AUTO 29005KT 9999 NCD 04/M02 Q1029


Station Type Date Time Source
ESOE Decoded METAR 2021/04/14 19:50 UTC NOAA

Orebro Private , Sweden (ESOE) 59-14N 015-03E
Apr 14, 2021 - 03:50 PM EDT / 2021.04.14 1950 UTC
Wind: from the WNW (290 degrees) at 6 MPH (5 KT):0
Visibility: greater than 7 mile(s):0
Temperature: 39 F (4 C)
Dew Point: 28 F (-2 C)
Relative Humidity: 64%
Pressure (altimeter): 30.39 in. Hg (1029 hPa)
ob: ESOE 141950Z AUTO 29005KT 9999 NCD 04/M02 Q1029
cycle: 20

Station Type Date Time Source
ESOE TAF 2016/03/16 04:36 UTC NOAA

TAF TAF ESOE 160330Z 1604/1624 23005KT 9000 BR NSC PROB40 1604/1607 1200 BR

Example: see airport list